WZZ101 EPWA-LFMN
Flight info
| Callsign | WZZ101 |
|---|---|
| Flight time | 2h 14m |
| Altitude | 36000 |
| Route | EVINA5D EVINA DCT NAVUR DCT PADKA DCT OGDAS DCT UPLAV DCT LEDVA DCT VAMET DCT RADLY DCT MONFA DCT BABAG DCT ARDAM DCT BIKTU DCT TOBGA DCT DOBIM DCT AKUTI R16 KERIT KERIT8R |
| Aircraft | A21N/M-SDE1E2E3FGIJ1J4RWXY/LB1 |
Departure
| Time | 2026-05-04 03:56 |
|---|---|
| Airport | Warsaw Chopin Airport (EPWA) |
Arrival
| Time | 2026-05-04 06:11 |
|---|---|
| Airport | Nice-Côte d'Azur Airport (LFMN) |
| Time | Latitude | Longitude | Altitude | Speed | Heading |
|---|---|---|---|---|---|
| 2026-05-04 03:33 | 52.17236 | 20.96642 | 333 ft | 0 kts | 208° |
| 2026-05-04 03:50 | 52.17235 | 20.96641 | 333 ft | 0 kts | 208° |
| 2026-05-04 03:51 | 52.17230 | 20.96636 | 333 ft | 1 kts | 208° |
| 2026-05-04 03:51 | 52.17210 | 20.96613 | 333 ft | 5 kts | 226° |
| 2026-05-04 03:51 | 52.17218 | 20.96555 | 333 ft | 6 kts | 322° |
| 2026-05-04 03:51 | 52.17261 | 20.96512 | 333 ft | 7 kts | 333° |
| 2026-05-04 03:52 | 52.17310 | 20.96472 | 333 ft | 7 kts | 334° |
| 2026-05-04 03:52 | 52.17358 | 20.96430 | 334 ft | 8 kts | 329° |
| 2026-05-04 03:52 | 52.17412 | 20.96381 | 334 ft | 9 kts | 330° |
| 2026-05-04 03:52 | 52.17471 | 20.96327 | 334 ft | 10 kts | 331° |
| 2026-05-04 03:53 | 52.17535 | 20.96271 | 334 ft | 10 kts | 332° |
| 2026-05-04 03:53 | 52.17598 | 20.96217 | 335 ft | 10 kts | 332° |
| 2026-05-04 03:53 | 52.17659 | 20.96164 | 336 ft | 9 kts | 331° |
| 2026-05-04 03:53 | 52.17717 | 20.96112 | 337 ft | 9 kts | 332° |
| 2026-05-04 03:54 | 52.17773 | 20.96063 | 338 ft | 9 kts | 327° |
| 2026-05-04 03:54 | 52.17813 | 20.95992 | 340 ft | 8 kts | 303° |
| 2026-05-04 03:54 | 52.17847 | 20.95907 | 342 ft | 10 kts | 302° |
| 2026-05-04 03:54 | 52.17887 | 20.95804 | 345 ft | 9 kts | 302° |
| 2026-05-04 03:55 | 52.17888 | 20.95711 | 346 ft | 8 kts | 240° |
| 2026-05-04 03:55 | 52.17859 | 20.95631 | 348 ft | 7 kts | 237° |
| 2026-05-04 03:55 | 52.17815 | 20.95628 | 348 ft | 9 kts | 154° |
| 2026-05-04 03:55 | 52.17572 | 20.95840 | 343 ft | 75 kts | 152° |
| 2026-05-04 03:56 | 52.16922 | 20.96410 | 332 ft | 136 kts | 152° |
| 2026-05-04 03:56 | 52.15931 | 20.97273 | 420 ft | 177 kts | 152° |
| 2026-05-04 03:56 | 52.14855 | 20.98230 | 981 ft | 179 kts | 154° |
| 2026-05-04 03:56 | 52.13749 | 20.99227 | 1632 ft | 184 kts | 159° |
| 2026-05-04 03:57 | 52.12547 | 20.99742 | 1977 ft | 183 kts | 193° |
| 2026-05-04 03:57 | 52.11404 | 20.98855 | 2245 ft | 190 kts | 217° |
| 2026-05-04 03:57 | 52.10260 | 20.97596 | 2496 ft | 210 kts | 215° |
| 2026-05-04 03:57 | 52.08953 | 20.96261 | 2786 ft | 229 kts | 214° |
| 2026-05-04 03:58 | 52.06097 | 20.93569 | 3984 ft | 242 kts | 211° |
| 2026-05-04 03:58 | 52.04620 | 20.92217 | 4693 ft | 245 kts | 211° |
| 2026-05-04 03:58 | 52.03136 | 20.90873 | 5300 ft | 250 kts | 211° |
| 2026-05-04 03:59 | 52.01588 | 20.89515 | 5944 ft | 255 kts | 210° |
| 2026-05-04 03:59 | 52.00024 | 20.88174 | 6609 ft | 259 kts | 209° |
| 2026-05-04 03:59 | 51.98428 | 20.86811 | 7285 ft | 261 kts | 209° |
| 2026-05-04 03:59 | 51.96824 | 20.85439 | 7940 ft | 264 kts | 210° |
| 2026-05-04 04:00 | 51.95194 | 20.84041 | 8597 ft | 267 kts | 210° |
| 2026-05-04 04:00 | 51.93553 | 20.82630 | 9236 ft | 270 kts | 210° |
| 2026-05-04 04:00 | 51.91897 | 20.81204 | 9831 ft | 273 kts | 210° |
| 2026-05-04 04:00 | 51.90205 | 20.79749 | 10383 ft | 278 kts | 210° |
| 2026-05-04 04:01 | 51.88443 | 20.78231 | 10674 ft | 293 kts | 210° |
| 2026-05-04 04:01 | 51.86597 | 20.76643 | 11016 ft | 306 kts | 210° |
| 2026-05-04 04:01 | 51.84710 | 20.75023 | 11552 ft | 310 kts | 210° |
| 2026-05-04 04:01 | 51.82796 | 20.73383 | 12147 ft | 313 kts | 210° |
| 2026-05-04 04:02 | 51.80869 | 20.71730 | 12721 ft | 316 kts | 210° |
| 2026-05-04 04:02 | 51.78929 | 20.70069 | 13279 ft | 319 kts | 210° |
| 2026-05-04 04:02 | 51.76960 | 20.68384 | 13842 ft | 321 kts | 210° |
| 2026-05-04 04:02 | 51.74992 | 20.66702 | 14376 ft | 324 kts | 210° |
| 2026-05-04 04:03 | 51.73008 | 20.65006 | 14895 ft | 327 kts | 210° |
| 2026-05-04 04:03 | 51.70982 | 20.63276 | 15426 ft | 329 kts | 210° |
| 2026-05-04 04:03 | 51.68967 | 20.61558 | 15940 ft | 332 kts | 210° |
| 2026-05-04 04:03 | 51.66909 | 20.59805 | 16439 ft | 335 kts | 210° |
| 2026-05-04 04:04 | 51.64863 | 20.58064 | 16914 ft | 338 kts | 210° |
| 2026-05-04 04:04 | 51.62785 | 20.56297 | 17378 ft | 341 kts | 210° |
| 2026-05-04 04:04 | 51.60669 | 20.54501 | 17850 ft | 343 kts | 210° |
| 2026-05-04 04:04 | 51.58573 | 20.52722 | 18304 ft | 346 kts | 210° |
| 2026-05-04 04:05 | 51.56434 | 20.50907 | 18750 ft | 349 kts | 210° |
| 2026-05-04 04:05 | 51.54295 | 20.49094 | 19171 ft | 352 kts | 210° |
| 2026-05-04 04:05 | 51.52101 | 20.47238 | 19591 ft | 355 kts | 210° |
| 2026-05-04 04:05 | 51.49932 | 20.45405 | 20003 ft | 357 kts | 210° |
| 2026-05-04 04:06 | 51.47711 | 20.43530 | 20402 ft | 360 kts | 210° |
| 2026-05-04 04:06 | 51.45494 | 20.41662 | 20793 ft | 363 kts | 210° |
| 2026-05-04 04:06 | 51.43251 | 20.39775 | 21190 ft | 365 kts | 210° |
| 2026-05-04 04:06 | 51.41008 | 20.37875 | 21568 ft | 367 kts | 211° |
| 2026-05-04 04:07 | 51.38816 | 20.35808 | 21932 ft | 370 kts | 214° |
| 2026-05-04 04:07 | 51.36695 | 20.33507 | 22287 ft | 372 kts | 217° |
| 2026-05-04 04:07 | 51.34609 | 20.31003 | 22649 ft | 374 kts | 218° |
| 2026-05-04 04:07 | 51.32538 | 20.28500 | 22987 ft | 377 kts | 218° |
| 2026-05-04 04:08 | 51.30429 | 20.25954 | 23334 ft | 380 kts | 218° |
| 2026-05-04 04:08 | 51.28320 | 20.23414 | 23675 ft | 382 kts | 218° |
| 2026-05-04 04:08 | 51.26191 | 20.20851 | 24015 ft | 384 kts | 218° |
| 2026-05-04 04:08 | 51.24067 | 20.18299 | 24347 ft | 387 kts | 218° |
| 2026-05-04 04:09 | 51.21910 | 20.15709 | 24672 ft | 389 kts | 218° |
| 2026-05-04 04:09 | 51.19754 | 20.13125 | 24985 ft | 391 kts | 218° |
| 2026-05-04 04:09 | 51.17571 | 20.10512 | 25294 ft | 394 kts | 218° |
| 2026-05-04 04:09 | 51.15373 | 20.07884 | 25604 ft | 396 kts | 218° |
| 2026-05-04 04:10 | 51.13163 | 20.05244 | 25896 ft | 398 kts | 218° |
| 2026-05-04 04:10 | 51.10961 | 20.02615 | 26191 ft | 400 kts | 218° |
| 2026-05-04 04:10 | 51.08773 | 20.00008 | 26471 ft | 402 kts | 218° |
| 2026-05-04 04:10 | 51.06490 | 19.97292 | 26765 ft | 404 kts | 218° |
| 2026-05-04 04:11 | 51.04248 | 19.94628 | 27041 ft | 406 kts | 218° |
| 2026-05-04 04:11 | 51.02013 | 19.91864 | 27302 ft | 408 kts | 221° |
| 2026-05-04 04:11 | 50.99890 | 19.88918 | 27569 ft | 409 kts | 224° |
| 2026-05-04 04:11 | 50.97850 | 19.85786 | 27829 ft | 411 kts | 226° |
| 2026-05-04 04:12 | 50.95815 | 19.82618 | 28091 ft | 412 kts | 226° |
| 2026-05-04 04:12 | 50.93769 | 19.79438 | 28346 ft | 414 kts | 226° |
| 2026-05-04 04:12 | 50.91698 | 19.76223 | 28597 ft | 416 kts | 226° |
| 2026-05-04 04:12 | 50.89648 | 19.73044 | 28839 ft | 418 kts | 226° |
| 2026-05-04 04:13 | 50.87564 | 19.69819 | 29085 ft | 420 kts | 226° |
| 2026-05-04 04:13 | 50.85477 | 19.66595 | 29325 ft | 422 kts | 226° |
| 2026-05-04 04:13 | 50.83373 | 19.63350 | 29563 ft | 424 kts | 226° |
| 2026-05-04 04:13 | 50.81271 | 19.60111 | 29792 ft | 426 kts | 226° |
| 2026-05-04 04:14 | 50.79136 | 19.56825 | 30028 ft | 427 kts | 226° |
| 2026-05-04 04:14 | 50.77021 | 19.53576 | 30263 ft | 429 kts | 226° |
| 2026-05-04 04:14 | 50.74880 | 19.50289 | 30498 ft | 430 kts | 226° |
| 2026-05-04 04:14 | 50.72717 | 19.46972 | 30731 ft | 432 kts | 226° |
| 2026-05-04 04:15 | 50.70580 | 19.43700 | 30970 ft | 433 kts | 226° |
| 2026-05-04 04:15 | 50.68430 | 19.40413 | 31202 ft | 434 kts | 226° |
| 2026-05-04 04:15 | 50.66250 | 19.37082 | 31420 ft | 435 kts | 226° |
| 2026-05-04 04:15 | 50.64079 | 19.33772 | 31633 ft | 437 kts | 225° |
| 2026-05-04 04:16 | 50.61885 | 19.30432 | 31849 ft | 438 kts | 225° |
| 2026-05-04 04:16 | 50.59694 | 19.27100 | 32070 ft | 439 kts | 225° |
| 2026-05-04 04:16 | 50.57526 | 19.23808 | 32338 ft | 439 kts | 225° |
| 2026-05-04 04:16 | 50.55331 | 19.20480 | 32637 ft | 438 kts | 225° |
| 2026-05-04 04:17 | 50.53155 | 19.17187 | 32938 ft | 436 kts | 225° |
| 2026-05-04 04:17 | 50.50951 | 19.13853 | 33231 ft | 435 kts | 225° |
| 2026-05-04 04:17 | 50.48778 | 19.10572 | 33499 ft | 435 kts | 225° |
| 2026-05-04 04:17 | 50.46602 | 19.07288 | 33767 ft | 434 kts | 225° |
| 2026-05-04 04:18 | 50.44424 | 19.04008 | 34057 ft | 433 kts | 225° |
| 2026-05-04 04:18 | 50.42262 | 19.00756 | 34324 ft | 432 kts | 225° |
| 2026-05-04 04:18 | 50.40094 | 18.97499 | 34567 ft | 431 kts | 225° |
| 2026-05-04 04:18 | 50.37954 | 18.94287 | 34787 ft | 431 kts | 225° |
| 2026-05-04 04:19 | 50.35799 | 18.91057 | 35000 ft | 431 kts | 225° |
| 2026-05-04 04:19 | 50.33640 | 18.87827 | 35217 ft | 430 kts | 225° |
| 2026-05-04 04:19 | 50.31477 | 18.84596 | 35422 ft | 429 kts | 225° |
| 2026-05-04 04:19 | 50.29338 | 18.81404 | 35604 ft | 429 kts | 225° |
| 2026-05-04 04:20 | 50.27185 | 18.78194 | 35787 ft | 429 kts | 225° |
| 2026-05-04 04:20 | 50.25019 | 18.74970 | 35966 ft | 428 kts | 225° |
| 2026-05-04 04:20 | 50.20695 | 18.68549 | 36006 ft | 429 kts | 225° |
| 2026-05-04 04:21 | 50.16401 | 18.62184 | 36014 ft | 429 kts | 225° |
| 2026-05-04 04:21 | 50.12066 | 18.55774 | 36010 ft | 429 kts | 225° |
| 2026-05-04 04:22 | 50.07749 | 18.49411 | 36003 ft | 429 kts | 225° |
| 2026-05-04 04:22 | 50.03424 | 18.43050 | 36016 ft | 430 kts | 225° |
| 2026-05-04 04:23 | 49.99149 | 18.36777 | 36019 ft | 430 kts | 225° |
| 2026-05-04 04:23 | 49.94817 | 18.30441 | 36021 ft | 429 kts | 224° |
| 2026-05-04 04:24 | 49.90330 | 18.24293 | 36034 ft | 430 kts | 222° |
| 2026-05-04 04:24 | 49.85809 | 18.18295 | 36024 ft | 429 kts | 222° |
| 2026-05-04 04:25 | 49.81241 | 18.12245 | 36029 ft | 429 kts | 222° |
| 2026-05-04 04:25 | 49.76722 | 18.06273 | 36030 ft | 430 kts | 222° |
| 2026-05-04 04:26 | 49.72150 | 18.00252 | 36027 ft | 430 kts | 222° |
| 2026-05-04 04:26 | 49.67498 | 17.94474 | 36035 ft | 430 kts | 219° |
| 2026-05-04 04:27 | 49.62777 | 17.88853 | 36028 ft | 429 kts | 219° |
| 2026-05-04 04:27 | 49.58070 | 17.83261 | 36034 ft | 429 kts | 219° |
| 2026-05-04 04:28 | 49.53361 | 17.77680 | 36039 ft | 429 kts | 219° |
| 2026-05-04 04:28 | 49.48639 | 17.72096 | 36040 ft | 430 kts | 219° |
| 2026-05-04 04:29 | 49.43921 | 17.66530 | 36045 ft | 430 kts | 219° |
| 2026-05-04 04:29 | 49.39187 | 17.60958 | 36043 ft | 430 kts | 219° |
| 2026-05-04 04:30 | 49.34436 | 17.55384 | 36042 ft | 429 kts | 219° |
| 2026-05-04 04:30 | 49.29774 | 17.49694 | 36043 ft | 429 kts | 221° |
| 2026-05-04 04:31 | 49.25185 | 17.43915 | 36036 ft | 428 kts | 221° |
| 2026-05-04 04:31 | 49.20573 | 17.38117 | 36037 ft | 428 kts | 221° |
| 2026-05-04 04:32 | 49.15965 | 17.32335 | 36043 ft | 429 kts | 220° |
| 2026-05-04 04:32 | 49.11359 | 17.26569 | 36037 ft | 430 kts | 220° |
| 2026-05-04 04:33 | 49.06753 | 17.20820 | 36036 ft | 430 kts | 220° |
| 2026-05-04 04:33 | 49.02135 | 17.15067 | 36035 ft | 430 kts | 221° |
| 2026-05-04 04:34 | 48.97489 | 17.09293 | 36035 ft | 430 kts | 220° |
| 2026-05-04 04:34 | 48.92871 | 17.03568 | 36032 ft | 430 kts | 220° |
| 2026-05-04 04:35 | 48.88238 | 16.97839 | 36027 ft | 430 kts | 220° |
| 2026-05-04 04:35 | 48.83589 | 16.92103 | 36029 ft | 430 kts | 221° |
| 2026-05-04 04:36 | 48.78951 | 16.86395 | 36023 ft | 430 kts | 221° |
| 2026-05-04 04:36 | 48.74239 | 16.80823 | 36026 ft | 430 kts | 217° |
| 2026-05-04 04:37 | 48.63839 | 16.71823 | 36030 ft | 433 kts | 209° |
| 2026-05-04 04:38 | 48.58532 | 16.67653 | 36023 ft | 433 kts | 210° |
| 2026-05-04 04:38 | 48.53185 | 16.63457 | 36028 ft | 433 kts | 210° |
| 2026-05-04 04:39 | 48.47831 | 16.59264 | 36029 ft | 432 kts | 210° |
| 2026-05-04 04:39 | 48.42490 | 16.55092 | 36023 ft | 433 kts | 209° |
| 2026-05-04 04:40 | 48.37154 | 16.50933 | 36026 ft | 433 kts | 209° |
| 2026-05-04 04:40 | 48.31829 | 16.46794 | 36023 ft | 432 kts | 210° |
| 2026-05-04 04:41 | 48.26483 | 16.42648 | 36015 ft | 432 kts | 210° |
| 2026-05-04 04:41 | 48.21150 | 16.38520 | 36018 ft | 432 kts | 210° |
| 2026-05-04 04:42 | 48.15770 | 16.34366 | 36018 ft | 433 kts | 209° |
| 2026-05-04 04:42 | 48.10442 | 16.30262 | 36017 ft | 434 kts | 208° |
| 2026-05-04 04:43 | 48.05051 | 16.26120 | 36014 ft | 433 kts | 208° |
| 2026-05-04 04:43 | 47.99706 | 16.22023 | 36019 ft | 433 kts | 208° |
| 2026-05-04 04:44 | 47.94362 | 16.17937 | 36014 ft | 433 kts | 209° |
| 2026-05-04 04:44 | 47.88999 | 16.13846 | 36019 ft | 434 kts | 208° |
| 2026-05-04 04:45 | 47.83608 | 16.09742 | 36020 ft | 434 kts | 209° |
| 2026-05-04 04:47 | 47.64780 | 15.95486 | 36036 ft | 434 kts | 209° |
| 2026-05-04 04:47 | 47.59411 | 15.91442 | 36043 ft | 434 kts | 208° |
| 2026-05-04 04:48 | 47.54056 | 15.87418 | 36042 ft | 434 kts | 209° |
| 2026-05-04 04:49 | 47.40572 | 15.77326 | 36039 ft | 434 kts | 209° |
| 2026-05-04 04:49 | 47.35202 | 15.73323 | 36037 ft | 435 kts | 209° |
| 2026-05-04 04:50 | 47.29804 | 15.69307 | 36041 ft | 435 kts | 209° |
| 2026-05-04 04:50 | 47.24395 | 15.65294 | 36045 ft | 435 kts | 209° |
| 2026-05-04 04:51 | 47.18956 | 15.61267 | 36042 ft | 436 kts | 209° |
| 2026-05-04 04:51 | 47.13557 | 15.57280 | 36045 ft | 435 kts | 209° |
| 2026-05-04 04:52 | 47.08138 | 15.53286 | 36048 ft | 436 kts | 209° |
| 2026-05-04 04:52 | 47.02731 | 15.49310 | 36047 ft | 436 kts | 209° |
| 2026-05-04 04:53 | 46.97260 | 15.45297 | 36045 ft | 435 kts | 209° |
| 2026-05-04 04:53 | 46.91857 | 15.41340 | 36048 ft | 435 kts | 209° |
| 2026-05-04 04:54 | 46.86407 | 15.37358 | 36054 ft | 435 kts | 209° |
| 2026-05-04 04:54 | 46.80966 | 15.33392 | 36059 ft | 435 kts | 208° |
| 2026-05-04 04:55 | 46.75554 | 15.29413 | 36061 ft | 435 kts | 210° |
| 2026-05-04 04:55 | 46.70210 | 15.25097 | 36063 ft | 434 kts | 213° |
| 2026-05-04 04:56 | 46.65260 | 15.20025 | 36074 ft | 432 kts | 221° |
| 2026-05-04 04:56 | 46.60865 | 15.14206 | 36085 ft | 429 kts | 228° |
| 2026-05-04 04:57 | 46.56928 | 15.07686 | 36091 ft | 428 kts | 232° |
| 2026-05-04 04:57 | 46.53061 | 15.01038 | 36095 ft | 428 kts | 232° |
| 2026-05-04 04:58 | 46.49165 | 14.94369 | 36093 ft | 429 kts | 232° |
| 2026-05-04 04:58 | 46.45303 | 14.87779 | 36107 ft | 429 kts | 232° |
| 2026-05-04 04:59 | 46.41437 | 14.81197 | 36115 ft | 429 kts | 232° |
| 2026-05-04 04:59 | 46.37561 | 14.74618 | 36114 ft | 428 kts | 232° |
| 2026-05-04 05:00 | 46.33692 | 14.68069 | 36095 ft | 428 kts | 232° |
| 2026-05-04 05:01 | 46.27893 | 14.58277 | 36064 ft | 428 kts | 232° |
| 2026-05-04 05:01 | 46.24026 | 14.51764 | 36064 ft | 428 kts | 232° |
| 2026-05-04 05:02 | 46.20133 | 14.45227 | 36067 ft | 428 kts | 232° |
| 2026-05-04 05:02 | 46.16254 | 14.38725 | 36066 ft | 428 kts | 232° |
| 2026-05-04 05:03 | 46.12341 | 14.32185 | 36076 ft | 429 kts | 231° |
| 2026-05-04 05:04 | 46.04512 | 14.19144 | 36092 ft | 430 kts | 231° |
| 2026-05-04 05:04 | 46.00577 | 14.12613 | 36093 ft | 430 kts | 231° |
| 2026-05-04 05:06 | 45.84787 | 13.86559 | 36092 ft | 428 kts | 231° |
| 2026-05-04 05:07 | 45.80851 | 13.80101 | 36090 ft | 428 kts | 231° |
| 2026-05-04 05:07 | 45.76904 | 13.73643 | 36083 ft | 428 kts | 231° |
| 2026-05-04 05:09 | 45.59165 | 13.44790 | 36061 ft | 427 kts | 231° |
| 2026-05-04 05:10 | 45.55193 | 13.38369 | 36055 ft | 427 kts | 231° |
| 2026-05-04 05:10 | 45.51243 | 13.32001 | 36054 ft | 427 kts | 231° |
| 2026-05-04 05:11 | 45.47275 | 13.25681 | 36049 ft | 427 kts | 229° |
| 2026-05-04 05:11 | 45.43174 | 13.19486 | 36049 ft | 427 kts | 229° |
| 2026-05-04 05:12 | 45.38976 | 13.13458 | 36046 ft | 428 kts | 225° |
| 2026-05-04 05:12 | 45.34327 | 13.08065 | 36045 ft | 429 kts | 219° |
| 2026-05-04 05:13 | 45.29547 | 13.02981 | 36042 ft | 429 kts | 219° |
| 2026-05-04 05:13 | 45.24758 | 12.97895 | 36045 ft | 429 kts | 219° |
| 2026-05-04 05:14 | 45.19996 | 12.92844 | 36043 ft | 428 kts | 219° |
| 2026-05-04 05:14 | 45.15225 | 12.87794 | 36046 ft | 428 kts | 219° |
| 2026-05-04 05:15 | 45.10470 | 12.82772 | 36043 ft | 428 kts | 219° |
| 2026-05-04 05:15 | 45.05709 | 12.77754 | 36042 ft | 427 kts | 219° |
| 2026-05-04 05:16 | 45.00919 | 12.72716 | 36044 ft | 427 kts | 219° |
| 2026-05-04 05:16 | 44.96186 | 12.67748 | 36044 ft | 426 kts | 219° |
| 2026-05-04 05:17 | 44.91418 | 12.62753 | 36046 ft | 427 kts | 220° |
| 2026-05-04 05:17 | 44.86635 | 12.57751 | 36045 ft | 426 kts | 219° |
| 2026-05-04 05:18 | 44.81901 | 12.52815 | 36044 ft | 426 kts | 219° |
| 2026-05-04 05:18 | 44.77299 | 12.47544 | 36048 ft | 424 kts | 224° |
| 2026-05-04 05:19 | 44.72884 | 12.42093 | 36053 ft | 425 kts | 224° |
| 2026-05-04 05:19 | 44.68445 | 12.36625 | 36062 ft | 425 kts | 224° |
| 2026-05-04 05:20 | 44.63966 | 12.31116 | 36060 ft | 425 kts | 223° |
| 2026-05-04 05:20 | 44.59518 | 12.25658 | 36057 ft | 425 kts | 223° |
| 2026-05-04 05:21 | 44.55088 | 12.20230 | 36064 ft | 425 kts | 223° |
| 2026-05-04 05:21 | 44.50617 | 12.14765 | 36070 ft | 425 kts | 223° |
| 2026-05-04 05:22 | 44.46154 | 12.09320 | 36071 ft | 425 kts | 223° |
| 2026-05-04 05:22 | 44.41690 | 12.03887 | 36077 ft | 424 kts | 223° |
| 2026-05-04 05:23 | 44.37239 | 11.98479 | 36072 ft | 425 kts | 223° |
| 2026-05-04 05:23 | 44.32745 | 11.93031 | 36075 ft | 425 kts | 223° |
| 2026-05-04 05:24 | 44.28281 | 11.87632 | 36076 ft | 424 kts | 223° |
| 2026-05-04 05:24 | 44.23837 | 11.82266 | 36079 ft | 424 kts | 223° |
| 2026-05-04 05:25 | 44.19359 | 11.76871 | 36084 ft | 424 kts | 223° |
| 2026-05-04 05:25 | 44.14927 | 11.71543 | 36089 ft | 424 kts | 223° |
| 2026-05-04 05:26 | 44.10464 | 11.66185 | 36086 ft | 424 kts | 223° |
| 2026-05-04 05:26 | 44.05978 | 11.60814 | 36091 ft | 424 kts | 223° |
| 2026-05-04 05:28 | 43.89582 | 11.37518 | 36096 ft | 423 kts | 230° |
| 2026-05-04 05:29 | 43.85629 | 11.31435 | 36099 ft | 423 kts | 229° |
| 2026-05-04 05:29 | 43.81703 | 11.25402 | 36106 ft | 423 kts | 229° |
| 2026-05-04 05:31 | 43.65893 | 11.01245 | 36114 ft | 423 kts | 229° |
| 2026-05-04 05:32 | 43.61920 | 10.95205 | 36110 ft | 423 kts | 229° |
| 2026-05-04 05:33 | 43.55984 | 10.86205 | 36110 ft | 423 kts | 229° |
| 2026-05-04 05:33 | 43.52033 | 10.80231 | 36105 ft | 422 kts | 229° |
| 2026-05-04 05:34 | 43.48094 | 10.74287 | 36108 ft | 423 kts | 229° |
| 2026-05-04 05:34 | 43.44320 | 10.68604 | 36107 ft | 423 kts | 229° |
| 2026-05-04 05:35 | 43.40447 | 10.62786 | 36108 ft | 422 kts | 229° |
| 2026-05-04 05:35 | 43.36441 | 10.56780 | 36107 ft | 422 kts | 229° |
| 2026-05-04 05:36 | 43.32436 | 10.50783 | 36105 ft | 423 kts | 229° |
| 2026-05-04 05:36 | 43.28445 | 10.44822 | 36101 ft | 423 kts | 229° |
| 2026-05-04 05:37 | 43.24472 | 10.38900 | 36100 ft | 423 kts | 229° |
| 2026-05-04 05:37 | 43.20477 | 10.32961 | 36101 ft | 423 kts | 228° |
| 2026-05-04 05:38 | 43.14496 | 10.24088 | 36095 ft | 423 kts | 228° |
| 2026-05-04 05:38 | 43.10509 | 10.18188 | 36092 ft | 424 kts | 228° |
| 2026-05-04 05:39 | 43.04518 | 10.09346 | 36088 ft | 424 kts | 228° |
| 2026-05-04 05:40 | 42.98516 | 10.00511 | 36087 ft | 424 kts | 228° |
| 2026-05-04 05:40 | 42.94999 | 9.94137 | 36072 ft | 422 kts | 244° |
| 2026-05-04 05:41 | 42.93964 | 9.90416 | 35823 ft | 426 kts | 255° |
| 2026-05-04 05:41 | 42.93480 | 9.86402 | 35309 ft | 428 kts | 265° |
| 2026-05-04 05:41 | 42.93635 | 9.82369 | 34502 ft | 435 kts | 277° |
| 2026-05-04 05:41 | 42.94347 | 9.78350 | 33478 ft | 442 kts | 286° |
| 2026-05-04 05:42 | 42.95517 | 9.74463 | 32469 ft | 448 kts | 292° |
| 2026-05-04 05:42 | 42.96830 | 9.70613 | 31763 ft | 446 kts | 293° |
| 2026-05-04 05:42 | 42.98143 | 9.66825 | 31242 ft | 440 kts | 293° |
| 2026-05-04 05:42 | 42.99431 | 9.63100 | 30761 ft | 434 kts | 293° |
| 2026-05-04 05:43 | 43.00704 | 9.59399 | 30282 ft | 429 kts | 293° |
| 2026-05-04 05:43 | 43.01954 | 9.55747 | 29816 ft | 424 kts | 293° |
| 2026-05-04 05:43 | 43.03191 | 9.52123 | 29356 ft | 418 kts | 293° |
| 2026-05-04 05:45 | 43.11410 | 9.27840 | 26252 ft | 390 kts | 292° |
| 2026-05-04 05:45 | 43.12537 | 9.24491 | 25823 ft | 387 kts | 292° |
| 2026-05-04 05:47 | 43.20161 | 9.01724 | 22844 ft | 367 kts | 292° |
| 2026-05-04 05:47 | 43.21202 | 8.98594 | 22420 ft | 365 kts | 292° |
| 2026-05-04 05:47 | 43.22255 | 8.95429 | 21993 ft | 363 kts | 292° |
| 2026-05-04 05:48 | 43.23305 | 8.92272 | 21562 ft | 362 kts | 292° |
| 2026-05-04 05:48 | 43.24334 | 8.89183 | 21137 ft | 360 kts | 292° |
| 2026-05-04 05:48 | 43.25374 | 8.86056 | 20711 ft | 358 kts | 293° |
| 2026-05-04 05:48 | 43.26396 | 8.82977 | 20292 ft | 356 kts | 293° |
| 2026-05-04 05:49 | 43.27431 | 8.79856 | 19868 ft | 354 kts | 293° |
| 2026-05-04 05:49 | 43.28434 | 8.76827 | 19454 ft | 352 kts | 293° |
| 2026-05-04 05:49 | 43.29454 | 8.73742 | 19030 ft | 351 kts | 293° |
| 2026-05-04 05:49 | 43.30255 | 8.70629 | 18740 ft | 350 kts | 281° |
| 2026-05-04 05:51 | 43.32422 | 8.47668 | 17022 ft | 343 kts | 277° |
| 2026-05-04 05:51 | 43.32746 | 8.44455 | 16780 ft | 342 kts | 277° |
| 2026-05-04 05:52 | 43.33071 | 8.41245 | 16536 ft | 341 kts | 277° |
| 2026-05-04 05:52 | 43.33400 | 8.38011 | 16290 ft | 339 kts | 277° |
| 2026-05-04 05:52 | 43.33722 | 8.34839 | 16048 ft | 338 kts | 276° |
| 2026-05-04 05:52 | 43.34049 | 8.31626 | 15800 ft | 336 kts | 276° |
| 2026-05-04 05:53 | 43.34369 | 8.28453 | 15553 ft | 335 kts | 276° |
| 2026-05-04 05:54 | 43.36556 | 8.06598 | 13835 ft | 325 kts | 276° |
| 2026-05-04 05:55 | 43.36859 | 8.03538 | 13588 ft | 324 kts | 276° |
| 2026-05-04 05:55 | 43.37162 | 8.00474 | 13342 ft | 323 kts | 276° |
| 2026-05-04 05:55 | 43.37465 | 7.97419 | 13091 ft | 322 kts | 276° |
| 2026-05-04 05:55 | 43.37765 | 7.94374 | 12846 ft | 322 kts | 276° |
| 2026-05-04 05:56 | 43.38061 | 7.91359 | 12600 ft | 322 kts | 276° |
| 2026-05-04 05:56 | 43.38361 | 7.88297 | 12353 ft | 322 kts | 276° |
| 2026-05-04 05:56 | 43.38659 | 7.85246 | 12098 ft | 322 kts | 276° |
| 2026-05-04 05:56 | 43.38954 | 7.82226 | 11854 ft | 321 kts | 275° |
| 2026-05-04 05:57 | 43.39249 | 7.79190 | 11607 ft | 320 kts | 275° |
| 2026-05-04 05:57 | 43.39541 | 7.76157 | 11358 ft | 320 kts | 275° |
| 2026-05-04 05:57 | 43.39831 | 7.73164 | 11113 ft | 319 kts | 275° |
| 2026-05-04 05:57 | 43.40121 | 7.70143 | 10862 ft | 319 kts | 275° |
| 2026-05-04 05:58 | 43.40411 | 7.67124 | 10614 ft | 318 kts | 275° |
| 2026-05-04 05:58 | 43.40699 | 7.64122 | 10369 ft | 317 kts | 275° |
| 2026-05-04 05:58 | 43.40987 | 7.61110 | 10118 ft | 316 kts | 275° |
| 2026-05-04 05:58 | 43.41272 | 7.58133 | 9920 ft | 315 kts | 275° |
| 2026-05-04 05:59 | 43.41554 | 7.55159 | 9752 ft | 311 kts | 275° |
| 2026-05-04 05:59 | 43.41827 | 7.52279 | 9663 ft | 297 kts | 275° |
| 2026-05-04 05:59 | 43.42089 | 7.49519 | 9583 ft | 289 kts | 275° |
| 2026-05-04 05:59 | 43.42347 | 7.46772 | 9395 ft | 288 kts | 275° |
| 2026-05-04 06:00 | 43.42600 | 7.44055 | 9173 ft | 288 kts | 275° |
| 2026-05-04 06:00 | 43.42853 | 7.41336 | 8868 ft | 287 kts | 275° |
| 2026-05-04 06:00 | 43.43105 | 7.38615 | 8537 ft | 285 kts | 275° |
| 2026-05-04 06:00 | 43.43357 | 7.35907 | 8195 ft | 283 kts | 276° |
| 2026-05-04 06:01 | 43.43607 | 7.33232 | 7855 ft | 282 kts | 275° |
| 2026-05-04 06:01 | 43.43851 | 7.30583 | 7514 ft | 280 kts | 275° |
| 2026-05-04 06:03 | 43.45524 | 7.12353 | 5172 ft | 270 kts | 276° |
| 2026-05-04 06:03 | 43.45756 | 7.09786 | 4854 ft | 269 kts | 277° |
| 2026-05-04 06:05 | 43.48332 | 6.99390 | 3988 ft | 230 kts | 350° |
| 2026-05-04 06:05 | 43.49888 | 6.99655 | 3990 ft | 221 kts | 31° |
| 2026-05-04 06:05 | 43.51083 | 7.00947 | 3842 ft | 220 kts | 45° |
| 2026-05-04 06:06 | 43.52159 | 7.02470 | 3552 ft | 218 kts | 47° |
| 2026-05-04 06:06 | 43.53184 | 7.03962 | 3271 ft | 216 kts | 46° |
| 2026-05-04 06:06 | 43.54237 | 7.05453 | 3014 ft | 213 kts | 45° |
| 2026-05-04 06:06 | 43.55260 | 7.06866 | 2814 ft | 204 kts | 45° |
| 2026-05-04 06:07 | 43.56258 | 7.08230 | 2507 ft | 199 kts | 45° |
| 2026-05-04 06:07 | 43.57224 | 7.09546 | 2217 ft | 194 kts | 45° |
| 2026-05-04 06:07 | 43.58170 | 7.10837 | 1939 ft | 186 kts | 45° |
| 2026-05-04 06:07 | 43.59056 | 7.12049 | 1708 ft | 169 kts | 45° |
| 2026-05-04 06:08 | 43.59855 | 7.13141 | 1466 ft | 156 kts | 44° |
| 2026-05-04 06:08 | 43.60596 | 7.14156 | 1266 ft | 145 kts | 44° |
| 2026-05-04 06:08 | 43.61313 | 7.15135 | 1082 ft | 143 kts | 44° |
| 2026-05-04 06:08 | 43.62015 | 7.16082 | 909 ft | 142 kts | 43° |
| 2026-05-04 06:09 | 43.62713 | 7.17046 | 740 ft | 142 kts | 44° |
| 2026-05-04 06:09 | 43.63417 | 7.18023 | 547 ft | 142 kts | 42° |
| 2026-05-04 06:11 | 43.66729 | 7.22490 | 22 ft | 13 kts | 352° |
| 2026-05-04 06:11 | 43.66799 | 7.22417 | 23 ft | 12 kts | 314° |
| 2026-05-04 06:13 | 43.66404 | 7.21764 | 27 ft | 11 kts | 225° |
| 2026-05-04 06:14 | 43.66331 | 7.21231 | 34 ft | 14 kts | 259° |
| 2026-05-04 06:14 | 43.66313 | 7.21085 | 31 ft | 13 kts | 261° |
| 2026-05-04 06:15 | 43.66314 | 7.20976 | 30 ft | 10 kts | 296° |
| 2026-05-04 06:15 | 43.66317 | 7.20873 | 30 ft | 11 kts | 260° |
| 2026-05-04 06:15 | 43.66301 | 7.20782 | 30 ft | 9 kts | 233° |
| 2026-05-04 06:15 | 43.66239 | 7.20767 | 29 ft | 10 kts | 171° |
| 2026-05-04 06:16 | 43.66190 | 7.20775 | 28 ft | 2 kts | 189° |
| 2026-05-04 06:16 | 43.66179 | 7.20741 | 28 ft | 5 kts | 265° |
| 2026-05-04 06:16 | 43.66173 | 7.20687 | 27 ft | 4 kts | 260° |
| 2026-05-04 06:16 | 43.66171 | 7.20669 | 27 ft | 0 kts | 261° |